Time;durP1;ratioP1;P1;durP2;ratioP2;P2;SDS_P1;SDS_P2;PMS_P1;PMS_P2;Temp;Humidity;BMP_temperature;BMP_pressure;BME280_temperature;BME280_humidity;BME280_pressure;Samples;Min_cycle;Max_cycle;Signal;HPM_P1;HPM_P2
2023/09/12 00:01:49;;;;;;;0.75;0.38;;;;;;;22.15;nan;99547.38;7394448;19;20018;-87
2023/09/12 00:04:15;;;;;;;1.38;0.68;;;;;;;21.54;nan;99557.69;7395301;19;20014;-88
2023/09/12 00:06:42;;;;;;;2.55;0.43;;;;;;;22.74;nan;99548.06;7392762;19;20366;-88
2023/09/12 00:09:08;;;;;;;1.08;0.43;;;;;;;34.52;nan;99532.41;7394734;19;20021;-87
2023/09/12 00:11:34;;;;;;;0.73;0.30;;;;;;;25.17;nan;99547.19;7395158;19;20049;-87
2023/09/12 00:14:00;;;;;;;0.60;0.60;;;;;;;28.25;nan;99534.34;7394116;19;20018;-86
2023/09/12 00:16:27;;;;;;;0.45;0.20;;;;;;;26.06;nan;99540.28;7398032;19;20018;-87
2023/09/12 00:18:53;;;;;;;3.83;0.50;;;;;;;25.54;nan;99531.81;7394452;19;20494;-87
2023/09/12 00:21:19;;;;;;;1.55;0.60;;;;;;;28.29;nan;99539.59;7396321;19;20027;-89
2023/09/12 00:23:45;;;;;;;0.20;0.10;;;;;;;25.42;nan;99541.47;7396289;19;20516;-90
2023/09/12 00:26:11;;;;;;;3.30;0.30;;;;;;;20.94;nan;99550.28;7397652;19;20021;-92
2023/09/12 00:28:38;;;;;;;0.28;0.28;;;;;;;21.85;nan;99548.78;7395920;19;20015;-93
2023/09/12 00:31:04;;;;;;;1.33;0.30;;;;;;;29.70;nan;99538.72;7394977;19;20022;-92
2023/09/12 00:33:30;;;;;;;0.20;0.10;;;;;;;21.56;nan;99543.72;7396432;19;20350;-93
2023/09/12 00:35:57;;;;;;;0.30;0.20;;;;;;;22.30;nan;99542.50;7398016;19;20548;-93
2023/09/12 00:38:23;;;;;;;4.72;0.75;;;;;;;30.93;nan;99525.78;7395463;19;20015;-94
2023/09/12 00:40:49;;;;;;;5.22;0.57;;;;;;;32.01;nan;99532.25;7395644;19;20040;-93
2023/09/12 00:43:16;;;;;;;0.40;0.20;;;;;;;24.75;nan;99540.72;7395406;19;20362;-94
2023/09/12 00:45:42;;;;;;;0.80;0.22;;;;;;;24.46;nan;99543.19;7397832;19;20015;-93
2023/09/12 00:48:09;;;;;;;0.55;0.20;;;;;;;25.80;nan;99533.22;7395686;19;20018;-93
2023/09/12 00:50:36;;;;;;;2.53;0.20;;;;;;;21.55;nan;99542.22;7396561;19;20010;-90
2023/09/12 00:53:04;;;;;;;1.65;0.13;;;;;;;29.50;nan;99539.50;7392590;19;20373;-94
2023/09/12 00:55:34;;;;;;;0.38;0.20;;;;;;;36.08;nan;99529.16;7395401;19;20505;-94
2023/09/12 00:58:01;;;;;;;;;;;;;;;37.12;nan;99526.63;7391674;19;20022;-94
2023/09/12 01:00:27;;;;;;;0.35;0.22;;;;;;;23.68;nan;99539.78;7391139;19;19922;-93
2023/09/12 01:02:54;;;;;;;0.70;0.13;;;;;;;36.83;nan;99512.50;7394000;19;20022;-93
2023/09/12 01:05:22;;;;;;;1.15;0.32;;;;;;;31.82;nan;99528.94;7392814;19;20051;-93
2023/09/12 01:07:48;;;;;;;2.58;0.45;;;;;;;35.09;nan;99515.47;7390015;19;20355;-93
2023/09/12 01:10:14;;;;;;;2.88;0.25;;;;;;;35.20;nan;99508.72;7389782;19;20561;-94
2023/09/12 01:12:40;;;;;;;0.98;0.10;;;;;;;35.66;nan;99510.75;7393760;19;20015;-93
2023/09/12 01:15:13;;;;;;;1.83;1.05;;;;;;;35.75;nan;99515.47;7394594;19;20367;-92
2023/09/12 01:17:42;;;;;;;0.30;0.10;;;;;;;30.27;nan;99507.94;7392534;19;20032;-94
2023/09/12 01:20:30;;;;;;;2.63;0.77;;;;;;;35.20;nan;99500.03;7393890;19;20082;-94
2023/09/12 01:23:27;;;;;;;0.60;0.20;;;;;;;36.76;nan;99496.25;7393532;19;20006;-92
2023/09/12 01:26:28;;;;;;;16.08;0.52;;;;;;;25.00;nan;99512.97;7397867;19;20014;-95
2023/09/12 01:28:57;;;;;;;0.08;0.08;;;;;;;21.30;nan;99512.78;7393765;19;20014;-93
2023/09/12 01:31:24;;;;;;;8.90;0.40;;;;;;;21.93;nan;99516.88;7392972;19;20361;-94
2023/09/12 01:33:55;;;;;;;0.25;0.15;;;;;;;26.39;nan;99513.00;7394011;19;20086;-94
2023/09/12 01:36:22;;;;;;;0.40;0.30;;;;;;;21.29;nan;99514.84;7398277;19;20017;-94
2023/09/12 01:38:48;;;;;;;0.95;0.30;;;;;;;20.82;nan;99512.25;7393748;19;20011;-93
2023/09/12 01:41:14;;;;;;;0.85;0.40;;;;;;;20.18;nan;99516.94;7394166;19;20006;-93
2023/09/12 01:43:41;;;;;;;0.35;0.28;;;;;;;20.31;nan;99519.75;7394652;19;20013;-93
2023/09/12 01:46:08;;;;;;;0.30;0.30;;;;;;;20.07;nan;99520.03;7397658;19;20026;-93
2023/09/12 01:48:36;;;;;;;1.33;0.20;;;;;;;19.85;nan;99523.38;7393963;19;20035;-94
2023/09/12 01:51:04;;;;;;;2.40;0.20;;;;;;;19.83;nan;99528.81;7394947;19;20045;-94
2023/09/12 01:53:33;;;;;;;5.15;0.40;;;;;;;19.85;nan;99526.97;7394829;19;20476;-94
2023/09/12 01:55:59;;;;;;;1.13;0.30;;;;;;;19.95;nan;99527.22;7396395;19;20367;-94
2023/09/12 01:58:26;;;;;;;7.25;1.10;;;;;;;20.73;nan;99520.47;7392052;19;20027;-94
2023/09/12 02:00:52;;;;;;;1.85;0.28;;;;;;;32.84;nan;99500.09;7393082;19;20011;-92
2023/09/12 02:03:20;;;;;;;0.73;0.38;;;;;;;37.48;nan;99500.31;7394411;19;20006;-91
2023/09/12 02:05:46;;;;;;;0.52;0.13;;;;;;;38.69;nan;99496.22;7394200;19;20011;-92
2023/09/12 02:08:12;;;;;;;1.45;0.10;;;;;;;39.26;nan;99504.41;7392858;19;20014;-91
2023/09/12 02:10:39;;;;;;;6.85;0.65;;;;;;;39.64;nan;99498.84;7392176;19;20019;-91
2023/09/12 02:13:05;;;;;;;0.68;0.45;;;;;;;40.13;nan;99496.41;7392289;19;20465;-92
2023/09/12 02:15:31;;;;;;;0.10;0.10;;;;;;;39.93;nan;99490.09;7393634;19;20513;-92
2023/09/12 02:17:57;;;;;;;0.82;0.25;;;;;;;39.95;nan;99490.16;7390701;19;20022;-92
2023/09/12 02:20:23;;;;;;;2.70;0.55;;;;;;;40.09;nan;99489.75;7392014;19;20019;-92
2023/09/12 02:22:49;;;;;;;4.90;0.52;;;;;;;40.31;nan;99489.50;7389493;19;20074;-92
2023/09/12 02:25:16;;;;;;;0.30;0.10;;;;;;;40.33;nan;99480.81;7391413;19;20021;-92
2023/09/12 02:27:42;;;;;;;0.98;0.20;;;;;;;40.57;nan;99484.25;7394019;19;20031;-92
2023/09/12 02:30:09;;;;;;;3.20;0.20;;;;;;;40.43;nan;99484.72;7392634;19;20061;-93
2023/09/12 02:32:35;;;;;;;1.02;0.17;;;;;;;40.53;nan;99487.09;7392388;19;20019;-94
2023/09/12 02:35:02;;;;;;;4.95;0.30;;;;;;;40.70;nan;99483.06;7389821;19;20029;-94
2023/09/12 02:37:28;;;;;;;1.48;0.80;;;;;;;40.57;nan;99482.09;7395274;19;20015;-91
2023/09/12 02:39:54;;;;;;;0.30;0.22;;;;;;;40.69;nan;99481.59;7392076;19;20019;-92
2023/09/12 02:42:21;;;;;;;1.02;0.47;;;;;;;40.13;nan;99483.28;7389995;19;20015;-92
2023/09/12 02:44:47;;;;;;;2.55;0.43;;;;;;;39.85;nan;99486.97;7390060;19;20011;-92
2023/09/12 02:47:13;;;;;;;1.65;0.38;;;;;;;39.59;nan;99489.28;7389216;19;20021;-92
2023/09/12 02:49:40;;;;;;;0.20;0.20;;;;;;;39.39;nan;99482.88;7395028;19;20015;-92
2023/09/12 02:52:06;;;;;;;0.80;0.38;;;;;;;39.60;nan;99482.00;7395618;19;20326;-92
2023/09/12 02:54:32;;;;;;;1.13;0.52;;;;;;;39.88;nan;99482.69;7390780;19;20011;-92
2023/09/12 02:56:58;;;;;;;2.90;1.25;;;;;;;35.98;nan;99490.28;7390408;19;20096;-92
2023/09/12 02:59:24;;;;;;;0.95;0.57;;;;;;;34.65;nan;99485.28;7391235;19;20019;-92
2023/09/12 03:01:50;;;;;;;0.43;0.40;;;;;;;34.44;nan;99485.00;7394402;19;20420;-92
2023/09/12 03:04:16;;;;;;;1.10;0.47;;;;;;;34.14;nan;99482.16;7391932;19;20014;-91
2023/09/12 03:06:43;;;;;;;0.55;0.32;;;;;;;36.29;nan;99478.50;7389714;19;20021;-91
2023/09/12 03:09:11;;;;;;;0.50;0.10;;;;;;;36.20;nan;99479.59;7390483;19;20320;-91
2023/09/12 03:11:37;;;;;;;0.20;0.15;;;;;;;42.72;nan;99473.34;7393080;19;20096;-91
2023/09/12 03:14:03;;;;;;;0.52;0.38;;;;;;;38.56;nan;99474.72;7391019;19;20039;-90
2023/09/12 03:16:29;;;;;;;0.13;0.13;;;;;;;42.57;nan;99471.69;7390137;19;20478;-91
2023/09/12 03:18:55;;;;;;;0.52;0.08;;;;;;;40.69;nan;99469.94;7390574;19;20038;-90
2023/09/12 03:21:21;;;;;;;0.57;0.30;;;;;;;43.83;nan;99462.00;7394016;19;20020;-91
2023/09/12 03:23:48;;;;;;;1.42;0.20;;;;;;;44.72;nan;99466.19;7398036;19;20014;-90
2023/09/12 03:26:14;;;;;;;0.10;0.10;;;;;;;44.65;nan;99468.38;7396556;19;20010;-90
2023/09/12 03:28:41;;;;;;;3.35;0.57;;;;;;;44.01;nan;99465.78;7397747;19;20015;-90
2023/09/12 03:31:13;;;;;;;1.35;0.38;;;;;;;41.53;nan;99464.94;7397005;19;20042;-91
2023/09/12 03:33:41;;;;;;;1.92;0.10;;;;;;;44.00;nan;99463.56;7399617;19;20359;-91
2023/09/12 03:36:07;;;;;;;3.95;0.43;;;;;;;44.71;nan;99462.50;7397781;19;20040;-91
2023/09/12 03:38:34;;;;;;;7.07;0.73;;;;;;;44.44;nan;99463.88;7397272;19;20021;-90
2023/09/12 03:41:01;;;;;;;0.52;0.10;;;;;;;44.47;nan;99468.28;7397208;19;20031;-90
2023/09/12 03:43:27;;;;;;;0.30;0.10;;;;;;;44.38;nan;99455.72;7398262;19;20026;-90
2023/09/12 03:45:54;;;;;;;0.52;0.25;;;;;;;44.21;nan;99454.19;7396549;19;20046;-90
2023/09/12 03:48:21;;;;;;;0.55;0.25;;;;;;;44.21;nan;99450.50;7396825;19;20078;-90
2023/09/12 03:50:47;;;;;;;0.10;0.10;;;;;;;40.30;nan;99453.00;7397346;19;20390;-89
2023/09/12 03:53:14;;;;;;;0.70;0.15;;;;;;;43.85;nan;99447.31;7397301;19;20525;-89
2023/09/12 03:55:40;;;;;;;1.05;0.63;;;;;;;34.76;nan;99454.66;7392966;19;20050;-89
2023/09/12 03:58:06;;;;;;;1.60;0.15;;;;;;;42.47;nan;99444.47;7395608;19;20015;-90
2023/09/12 04:00:33;;;;;;;0.10;0.00;;;;;;;43.47;nan;99445.53;7393493;19;20022;-90
2023/09/12 04:02:59;;;;;;;0.00;0.00;;;;;;;44.37;nan;99441.78;7394041;19;20011;-89
2023/09/12 04:05:26;;;;;;;0.57;0.20;;;;;;;44.49;nan;99438.19;7392931;19;20017;-90
2023/09/12 04:07:52;;;;;;;0.00;0.00;;;;;;;44.27;nan;99439.53;7397328;19;20022;-90
2023/09/12 04:10:20;;;;;;;0.77;0.13;;;;;;;44.18;nan;99432.16;7398740;19;20014;-90
2023/09/12 04:12:46;;;;;;;0.20;0.20;;;;;;;44.33;nan;99442.50;7395893;19;20027;-90
2023/09/12 04:15:13;;;;;;;0.20;0.00;;;;;;;44.30;nan;99438.06;7394961;19;20018;-89
2023/09/12 04:17:39;;;;;;;0.65;0.30;;;;;;;43.89;nan;99442.22;7394257;19;20014;-90
2023/09/12 04:20:06;;;;;;;1.65;0.20;;;;;;;44.22;nan;99438.03;7393091;19;20036;-90
2023/09/12 04:22:33;;;;;;;1.70;0.20;;;;;;;28.68;nan;99455.03;7398778;19;20395;-90
2023/09/12 04:24:59;;;;;;;0.20;0.20;;;;;;;25.41;nan;99457.97;7393711;19;20069;-91
2023/09/12 04:27:26;;;;;;;0.98;0.40;;;;;;;25.39;nan;99454.97;7396135;19;20358;-90
2023/09/12 04:29:52;;;;;;;0.55;0.30;;;;;;;20.94;nan;99468.16;7395442;19;20028;-90
2023/09/12 04:32:23;;;;;;;0.38;0.20;;;;;;;23.54;nan;99467.41;7397332;19;20074;-90
2023/09/12 04:34:50;;;;;;;0.30;0.13;;;;;;;38.35;nan;99448.63;7397990;19;20479;-90
2023/09/12 04:37:17;;;;;;;0.70;0.10;;;;;;;41.93;nan;99435.63;7397091;19;20018;-92
2023/09/12 04:39:45;;;;;;;0.15;0.00;;;;;;;42.79;nan;99438.97;7395353;19;20017;-92
2023/09/12 04:42:11;;;;;;;10.43;0.52;;;;;;;43.07;nan;99433.44;7394136;19;20465;-91
2023/09/12 04:44:41;;;;;;;0.00;0.00;;;;;;;43.25;nan;99442.44;7398712;19;20018;-90
2023/09/12 04:47:09;;;;;;;0.93;0.30;;;;;;;43.74;nan;99437.72;7392219;19;20027;-91
2023/09/12 04:49:35;;;;;;;0.47;0.35;;;;;;;43.98;nan;99437.88;7395055;19;20025;-92
2023/09/12 04:52:01;;;;;;;1.00;0.10;;;;;;;44.00;nan;99437.16;7398587;19;20109;-92
2023/09/12 04:54:27;;;;;;;1.30;0.05;;;;;;;43.90;nan;99429.03;7392560;19;20014;-91
2023/09/12 04:56:53;;;;;;;0.10;0.00;;;;;;;43.81;nan;99436.31;7395418;19;20225;-90
2023/09/12 04:59:19;;;;;;;1.38;0.40;;;;;;;44.01;nan;99430.53;7395898;19;20014;-91
2023/09/12 05:01:45;;;;;;;0.68;0.38;;;;;;;44.00;nan;99434.97;7395949;19;20014;-90
2023/09/12 05:04:12;;;;;;;0.20;0.20;;;;;;;42.06;nan;99443.16;7394774;19;20045;-91
2023/09/12 05:06:39;;;;;;;0.00;0.00;;;;;;;43.14;nan;99443.03;7392716;19;20021;-90
2023/09/12 05:09:08;;;;;;;0.85;0.40;;;;;;;43.03;nan;99445.13;7396961;19;20465;-90
2023/09/12 05:11:35;;;;;;;0.60;0.22;;;;;;;43.49;nan;99441.91;7393401;19;20014;-91
2023/09/12 05:14:03;;;;;;;2.85;0.30;;;;;;;43.54;nan;99443.41;7393340;19;20019;-90
2023/09/12 05:16:30;;;;;;;0.40;0.20;;;;;;;32.06;nan;99458.31;7392629;19;20021;-90
2023/09/12 05:18:56;;;;;;;0.98;0.17;;;;;;;24.71;nan;99466.31;7395954;19;20010;-90
2023/09/12 05:21:22;;;;;;;0.45;0.30;;;;;;;31.58;nan;99461.34;7396205;19;20021;-89
2023/09/12 05:23:49;;;;;;;0.10;0.10;;;;;;;23.03;nan;99475.50;7395303;19;20018;-89
2023/09/12 05:26:15;;;;;;;0.28;0.13;;;;;;;21.90;nan;99470.53;7392255;19;20496;-89
2023/09/12 05:28:41;;;;;;;0.88;0.13;;;;;;;21.46;nan;99475.47;7393652;19;20035;-90
2023/09/12 05:31:07;;;;;;;2.40;0.10;;;;;;;21.23;nan;99476.66;7397028;19;20024;-89
2023/09/12 05:33:35;;;;;;;9.55;0.45;;;;;;;21.05;nan;99472.81;7392866;19;20011;-89
2023/09/12 05:36:02;;;;;;;0.80;0.10;;;;;;;20.92;nan;99479.28;7393299;19;20011;-91
2023/09/12 05:38:28;;;;;;;0.13;0.03;;;;;;;20.80;nan;99475.25;7392408;19;20027;-94
2023/09/12 05:40:56;;;;;;;1.10;0.03;;;;;;;20.73;nan;99475.19;7392086;19;20010;-95
2023/09/12 05:43:22;;;;;;;1.08;0.50;;;;;;;20.67;nan;99480.25;7394405;19;20561;-92
2023/09/12 05:45:49;;;;;;;0.32;0.20;;;;;;;20.64;nan;99476.44;7388398;19;20038;-92
2023/09/12 05:48:15;;;;;;;0.00;0.00;;;;;;;20.69;nan;99480.44;7393272;19;20500;-91
2023/09/12 05:50:41;;;;;;;0.10;0.10;;;;;;;20.63;nan;99477.78;7393603;19;20018;-90
2023/09/12 05:53:08;;;;;;;2.63;0.63;;;;;;;20.61;nan;99491.72;7393725;19;20029;-89
2023/09/12 05:55:34;;;;;;;0.22;0.10;;;;;;;20.62;nan;99484.00;7393858;19;20018;-89
2023/09/12 05:58:00;;;;;;;0.32;0.20;;;;;;;20.62;nan;99484.00;7391031;19;20069;-90
2023/09/12 06:00:27;;;;;;;0.10;0.03;;;;;;;20.64;nan;99484.22;7390174;19;20025;-90
2023/09/12 06:02:53;;;;;;;0.57;0.13;;;;;;;20.64;nan;99490.59;7391981;19;20018;-91
2023/09/12 06:05:19;;;;;;;0.25;0.10;;;;;;;20.63;nan;99489.09;7389319;19;20026;-91
2023/09/12 06:07:46;;;;;;;0.30;0.30;;;;;;;20.62;nan;99487.56;7395733;19;20014;-90
2023/09/12 06:10:12;;;;;;;0.52;0.30;;;;;;;20.64;nan;99496.25;7391338;19;20021;-91
2023/09/12 06:12:39;;;;;;;0.32;0.32;;;;;;;20.63;nan;99489.09;7392822;19;20041;-91
2023/09/12 06:15:05;;;;;;;0.05;0.03;;;;;;;20.64;nan;99496.25;7391200;19;20011;-91
2023/09/12 06:17:31;;;;;;;2.47;0.50;;;;;;;20.63;nan;99499.66;7391190;19;20469;-89
2023/09/12 06:19:58;;;;;;;1.40;0.30;;;;;;;20.62;nan;99504.56;7393569;19;20019;-91
2023/09/12 06:22:24;;;;;;;0.55;0.20;;;;;;;35.43;nan;99490.88;7394281;19;20362;-92
2023/09/12 06:24:51;;;;;;;0.00;0.00;;;;;;;40.86;nan;99494.38;7389767;19;20035;-92
2023/09/12 06:27:18;;;;;;;0.73;0.10;;;;;;;41.94;nan;99498.53;7389930;19;20015;-91
2023/09/12 06:29:48;;;;;;;0.10;0.10;;;;;;;42.36;nan;99502.13;7394072;19;20014;-92
2023/09/12 06:32:15;;;;;;;0.10;0.10;;;;;;;42.67;nan;99497.41;7391133;19;20486;-92
2023/09/12 06:34:41;;;;;;;0.20;0.10;;;;;;;42.79;nan;99498.31;7390317;19;20014;-92
2023/09/12 06:37:08;;;;;;;0.20;0.10;;;;;;;35.75;nan;99515.47;7392725;19;20031;-92
2023/09/12 06:39:34;;;;;;;0.73;0.17;;;;;;;41.12;nan;99509.50;7391091;19;20007;-91
2023/09/12 06:42:00;;;;;;;0.20;0.13;;;;;;;42.00;nan;99498.63;7393708;19;20022;-92
2023/09/12 06:44:26;;;;;;;0.20;0.20;;;;;;;42.01;nan;99505.97;7393127;19;20050;-91
2023/09/12 06:46:52;;;;;;;0.00;0.00;;;;;;;41.84;nan;99505.00;7389589;19;20098;-91
2023/09/12 06:49:19;;;;;;;0.32;0.08;;;;;;;41.75;nan;99508.50;7393549;19;20027;-91
2023/09/12 06:51:45;;;;;;;0.10;0.00;;;;;;;41.72;nan;99515.75;7394874;19;20024;-92
2023/09/12 06:54:12;;;;;;;0.10;0.10;;;;;;;41.46;nan;99519.69;7393007;19;20015;-92
2023/09/12 06:56:41;;;;;;;0.00;0.00;;;;;;;41.35;nan;99515.09;7391888;19;20022;-91
2023/09/12 06:59:07;;;;;;;0.00;0.00;;;;;;;41.45;nan;99512.38;7398754;19;20007;-91
2023/09/12 07:01:33;;;;;;;0.00;0.00;;;;;;;41.49;nan;99517.53;7397592;19;20011;-92
2023/09/12 07:03:59;;;;;;;0.00;0.00;;;;;;;41.41;nan;99515.19;7399257;19;20033;-92
2023/09/12 07:06:26;;;;;;;0.00;0.00;;;;;;;41.30;nan;99518.66;7397038;19;20469;-91
2023/09/12 07:08:52;;;;;;;1.10;0.80;;;;;;;40.56;nan;99515.66;7398290;19;20019;-91
2023/09/12 07:11:19;;;;;;;0.08;0.00;;;;;;;41.13;nan;99520.47;7398603;19;20018;-91
2023/09/12 07:13:45;;;;;;;0.00;0.00;;;;;;;40.71;nan;99522.53;7399694;19;20034;-91
2023/09/12 07:16:12;;;;;;;0.10;0.00;;;;;;;41.31;nan;99520.13;7396593;19;20481;-91
2023/09/12 07:18:38;;;;;;;0.00;0.00;;;;;;;41.46;nan;99513.81;7399832;19;20014;-90
2023/09/12 07:21:05;;;;;;;0.10;0.00;;;;;;;41.55;nan;99521.31;7401359;19;20508;-90
2023/09/12 07:23:32;;;;;;;0.10;0.10;;;;;;;41.51;nan;99515.38;7397971;19;20021;-91
2023/09/12 07:25:58;;;;;;;0.10;0.00;;;;;;;41.35;nan;99523.84;7398432;19;20006;-90
2023/09/12 07:28:26;;;;;;;0.10;0.00;;;;;;;41.33;nan;99523.81;7399026;19;20400;-91
2023/09/12 07:30:54;;;;;;;0.05;0.03;;;;;;;41.45;nan;99529.91;7399325;19;20458;-92
2023/09/12 07:33:21;;;;;;;0.10;0.00;;;;;;;41.40;nan;99528.34;7398339;19;20018;-91
2023/09/12 07:35:47;;;;;;;0.10;0.00;;;;;;;41.67;nan;99531.75;7396489;19;20018;-89
2023/09/12 07:38:16;;;;;;;0.00;0.00;;;;;;;41.71;nan;99531.81;7395620;19;20086;-89
2023/09/12 07:40:43;;;;;;;0.00;0.00;;;;;;;41.75;nan;99537.75;7395723;19;20025;-89
2023/09/12 07:43:10;;;;;;;0.38;0.20;;;;;;;36.03;nan;99549.94;7397882;19;20022;-90
2023/09/12 07:45:38;;;;;;;0.10;0.05;;;;;;;35.09;nan;99553.13;7394628;19;20011;-90
2023/09/12 07:48:11;;;;;;;0.10;0.00;;;;;;;36.87;nan;99541.66;7397036;19;20363;-91
2023/09/12 07:50:38;;;;;;;0.00;0.00;;;;;;;39.87;nan;99545.34;7398033;19;20031;-90
2023/09/12 07:53:07;;;;;;;0.00;0.00;;;;;;;40.78;nan;99554.09;7398690;19;20018;-90
2023/09/12 07:55:45;;;;;;;0.10;0.10;;;;;;;38.39;nan;99557.16;7398166;19;20469;-92
2023/09/12 07:58:15;;;;;;;0.10;0.00;;;;;;;37.49;nan;99554.13;7395321;19;20078;-91
2023/09/12 08:00:42;;;;;;;0.73;0.10;;;;;;;37.44;nan;99550.31;7394461;19;20049;-90
2023/09/12 08:03:08;;;;;;;1.17;0.30;;;;;;;37.35;nan;99544.91;7395218;19;20539;-89
2023/09/12 08:05:34;;;;;;;0.28;0.10;;;;;;;37.32;nan;99543.31;7396871;19;20018;-89
2023/09/12 08:08:01;;;;;;;0.00;0.00;;;;;;;37.23;nan;99551.72;7396561;19;20035;-89
2023/09/12 08:10:27;;;;;;;0.15;0.15;;;;;;;26.01;nan;99575.56;7396473;19;20033;-90
2023/09/12 08:12:53;;;;;;;0.00;0.00;;;;;;;21.43;nan;99581.44;7396003;19;20014;-90
2023/09/12 08:15:19;;;;;;;0.57;0.35;;;;;;;20.24;nan;99588.31;7397720;19;20432;-88
2023/09/12 08:17:51;;;;;;;0.00;0.00;;;;;;;19.74;nan;99595.00;7393379;19;20018;-89
2023/09/12 08:20:18;;;;;;;0.00;0.00;;;;;;;19.53;nan;99589.25;7392797;19;20014;-88
2023/09/12 08:22:44;;;;;;;0.10;0.10;;;;;;;19.27;nan;99594.13;7393669;19;20014;-88
2023/09/12 08:25:12;;;;;;;0.10;0.10;;;;;;;19.24;nan;99598.78;7394231;19;20031;-88
2023/09/12 08:27:38;;;;;;;0.75;0.10;;;;;;;18.60;nan;99591.72;7395561;19;20043;-88
2023/09/12 08:30:05;;;;;;;0.13;0.13;;;;;;;20.11;nan;99596.78;7396470;19;20031;-88
2023/09/12 08:32:31;;;;;;;0.00;0.00;;;;;;;19.66;nan;99597.00;7396434;19;20006;-87
2023/09/12 08:34:58;;;;;;;0.20;0.10;;;;;;;20.99;nan;99588.25;7396448;19;20011;-87
2023/09/12 08:37:25;;;;;;;0.00;0.00;;;;;;;20.31;nan;99605.34;7397366;19;20014;-86
2023/09/12 08:39:56;;;;;;;0.35;0.08;;;;;;;21.08;nan;99591.38;7395178;19;20078;-87
2023/09/12 08:42:22;;;;;;;0.00;0.00;;;;;;;19.57;nan;99606.66;7395178;19;20501;-87
2023/09/12 08:44:49;;;;;;;0.00;0.00;;;;;;;19.81;nan;99597.19;7397536;19;20015;-87
2023/09/12 08:47:16;;;;;;;0.10;0.10;;;;;;;19.34;nan;99604.78;7392586;19;20480;-88
2023/09/12 08:49:42;;;;;;;0.80;0.10;;;;;;;19.89;nan;99598.03;7394714;19;20089;-87
2023/09/12 08:52:08;;;;;;;1.38;0.10;;;;;;;19.35;nan;99604.25;7399723;19;20349;-88
2023/09/12 08:54:34;;;;;;;0.00;0.00;;;;;;;19.72;nan;99599.69;7393640;19;20479;-87
2023/09/12 08:57:06;;;;;;;0.10;0.00;;;;;;;19.31;nan;99606.63;7392140;19;20018;-88
2023/09/12 08:59:34;;;;;;;0.00;0.00;;;;;;;19.37;nan;99603.72;7395254;19;20014;-86
2023/09/12 09:02:01;;;;;;;0.13;0.13;;;;;;;19.36;nan;99605.78;7392616;19;20015;-86
2023/09/12 09:04:31;;;;;;;0.10;0.10;;;;;;;19.47;nan;99613.25;7392818;19;20493;-86
2023/09/12 09:06:59;;;;;;;0.10;0.10;;;;;;;19.42;nan;99612.09;7390196;19;20043;-85
2023/09/12 09:09:27;;;;;;;0.00;0.00;;;;;;;19.50;nan;99607.31;7392656;19;20020;-85
2023/09/12 09:11:53;;;;;;;0.00;0.00;;;;;;;19.73;nan;99618.19;7394843;19;20022;-87
2023/09/12 09:14:19;;;;;;;0.10;0.00;;;;;;;19.76;nan;99619.88;7392508;19;20365;-85
2023/09/12 09:16:45;;;;;;;0.00;0.00;;;;;;;19.77;nan;99619.38;7391919;19;20015;-85
2023/09/12 09:19:11;;;;;;;0.20;0.10;;;;;;;19.75;nan;99621.22;7390641;19;20078;-83
2023/09/12 09:21:40;;;;;;;2.55;0.10;;;;;;;19.31;nan;99617.16;7394151;19;20025;-84
2023/09/12 09:24:08;;;;;;;0.10;0.00;;;;;;;19.31;nan;99617.91;7390725;19;20010;-84
2023/09/12 09:26:43;;;;;;;0.00;0.00;;;;;;;20.60;nan;99613.94;7395038;19;20473;-82
2023/09/12 09:29:12;;;;;;;0.00;0.00;;;;;;;21.53;nan;99619.25;7391889;19;20036;-82
2023/09/12 09:31:43;;;;;;;0.10;0.00;;;;;;;20.43;nan;99622.81;7392461;19;20086;-83
2023/09/12 09:34:17;;;;;;;0.10;0.00;;;;;;;19.76;nan;99619.88;7391717;19;20082;-83
2023/09/12 09:36:46;;;;;;;0.00;0.00;;;;;;;20.19;nan;99623.09;7393642;19;20074;-83
2023/09/12 09:39:13;;;;;;;0.38;0.17;;;;;;;20.46;nan;99629.47;7395940;19;20007;-82
2023/09/12 09:41:40;;;;;;;0.00;0.00;;;;;;;19.64;nan;99637.06;7391124;19;20391;-83
2023/09/12 09:44:09;;;;;;;0.10;0.10;;;;;;;19.68;nan;99640.31;7391745;19;20043;-82
2023/09/12 09:46:37;;;;;;;0.00;0.00;;;;;;;19.51;nan;99628.59;7393181;19;20015;-82
2023/09/12 09:49:03;;;;;;;0.13;0.00;;;;;;;19.49;nan;99642.50;7391115;19;20029;-82
2023/09/12 09:51:31;;;;;;;0.43;0.10;;;;;;;21.74;nan;99628.47;7394676;19;20035;-82
2023/09/12 09:53:58;;;;;;;0.00;0.00;;;;;;;19.75;nan;99643.81;7392102;19;20033;-82
2023/09/12 09:56:27;;;;;;;0.10;0.00;;;;;;;19.51;nan;99641.97;7394044;19;20014;-81
2023/09/12 09:58:55;;;;;;;0.05;0.00;;;;;;;19.36;nan;99636.84;7390074;19;20441;-82
2023/09/12 10:01:26;;;;;;;0.00;0.00;;;;;;;19.36;nan;99642.47;7390185;19;20380;-82
2023/09/12 10:03:52;;;;;;;0.00;0.00;;;;;;;19.40;nan;99648.59;7391800;19;20090;-82
2023/09/12 10:06:19;;;;;;;0.00;0.00;;;;;;;19.48;nan;99648.69;7393725;19;20710;-83
2023/09/12 10:08:50;;;;;;;0.00;0.00;;;;;;;19.45;nan;99650.53;7390984;19;20043;-82
2023/09/12 10:11:18;;;;;;;0.10;0.00;;;;;;;19.45;nan;99647.72;7390112;19;20066;-82
2023/09/12 10:13:55;;;;;;;0.00;0.00;;;;;;;19.54;nan;99652.94;7392241;19;20074;-83
2023/09/12 10:16:30;;;;;;;0.00;0.00;;;;;;;19.81;nan;99658.59;7394515;19;20014;-84
2023/09/12 10:19:33;;;;;;;0.00;0.00;;;;;;;20.89;nan;99658.78;7392337;19;20070;-84
2023/09/12 10:22:08;;;;;;;0.00;0.00;;;;;;;20.52;nan;99664.81;7395595;19;20022;-83
2023/09/12 10:24:35;;;;;;;0.00;0.00;;;;;;;20.54;nan;99656.53;7391335;19;20031;-83
2023/09/12 10:27:03;;;;;;;0.38;0.20;;;;;;;19.96;nan;99670.09;7391554;19;20480;-83
2023/09/12 10:29:31;;;;;;;0.00;0.00;;;;;;;19.76;nan;99673.59;7390764;19;20035;-83
2023/09/12 10:31:57;;;;;;;0.08;0.08;;;;;;;19.68;nan;99674.22;7395949;19;20022;-83
2023/09/12 10:34:25;;;;;;;0.00;0.00;;;;;;;19.68;nan;99674.22;7396699;19;20438;-83
2023/09/12 10:36:55;;;;;;;0.00;0.00;;;;;;;19.79;nan;99666.84;7398764;19;20025;-83
2023/09/12 10:39:24;;;;;;;0.00;0.00;;;;;;;19.89;nan;99671.53;7398333;19;20019;-82
2023/09/12 10:41:51;;;;;;;0.00;0.00;;;;;;;19.89;nan;99667.94;7397566;19;20018;-82
2023/09/12 10:44:18;;;;;;;0.00;0.00;;;;;;;19.81;nan;99670.66;7396236;19;20010;-83
2023/09/12 10:46:46;;;;;;;0.00;0.00;;;;;;;20.02;nan;99673.56;7393934;19;20365;-83
2023/09/12 10:49:14;;;;;;;0.00;0.00;;;;;;;20.12;nan;99661.28;7397464;19;20086;-83
2023/09/12 10:51:41;;;;;;;0.00;0.00;;;;;;;21.56;nan;99665.56;7400620;19;20077;-82
2023/09/12 10:54:13;;;;;;;0.00;0.00;;;;;;;20.98;nan;99678.13;7396999;19;20022;-82
2023/09/12 10:56:39;;;;;;;0.10;0.00;;;;;;;20.96;nan;99680.72;7396375;19;20039;-82
2023/09/12 10:59:09;;;;;;;0.10;0.00;;;;;;;21.45;nan;99677.22;7397994;19;20489;-81
2023/09/12 11:01:48;;;;;;;0.00;0.00;;;;;;;21.24;nan;99673.66;7396195;19;20029;-82
2023/09/12 11:04:20;;;;;;;0.00;0.00;;;;;;;21.60;nan;99669.59;7398904;19;20016;-82
2023/09/12 11:06:47;;;;;;;0.17;0.10;;;;;;;21.82;nan;99665.38;7394249;19;20015;-82
2023/09/12 11:09:13;;;;;;;0.00;0.00;;;;;;;21.31;nan;99670.84;7397326;19;20019;-81
2023/09/12 11:11:41;;;;;;;0.17;0.00;;;;;;;22.30;nan;99672.25;7396336;19;20370;-81
2023/09/12 11:14:08;;;;;;;0.00;0.00;;;;;;;21.65;nan;99665.06;7396081;19;20047;-81
2023/09/12 11:16:38;;;;;;;0.00;0.00;;;;;;;20.80;nan;99673.41;7397811;19;20027;-81
2023/09/12 11:19:18;;;;;;;0.00;0.00;;;;;;;20.63;nan;99684.34;7397775;19;20031;-81
2023/09/12 11:21:46;;;;;;;0.10;0.10;;;;;;;20.55;nan;99679.91;7398773;19;20018;-82
2023/09/12 11:24:14;;;;;;;0.00;0.00;;;;;;;20.39;nan;99678.97;7395290;19;20020;-81
2023/09/12 11:26:57;;;;;;;0.30;0.30;;;;;;;21.96;nan;99678.13;7394501;19;20010;-81
2023/09/12 11:29:40;;;;;;;0.00;0.00;;;;;;;34.91;nan;99676.75;7396739;19;20070;-82
2023/09/12 11:32:07;;;;;;;0.05;0.00;;;;;;;36.73;nan;99665.97;7396795;19;20023;-82
2023/09/12 11:34:38;;;;;;;0.55;0.10;;;;;;;37.28;nan;99682.59;7395277;19;20491;-81
2023/09/12 11:37:04;;;;;;;;;;;;;;;37.72;nan;99675.56;7398767;19;20014;-81
2023/09/12 11:39:33;;;;;;;0.30;0.20;;;;;;;37.88;nan;99684.91;7393566;19;20209;-81
2023/09/12 11:42:02;;;;;;;0.00;0.00;;;;;;;39.72;nan;99677.66;7395004;19;20018;-81
2023/09/12 11:44:30;;;;;;;0.00;0.00;;;;;;;40.10;nan;99675.81;7393208;19;20015;-81
2023/09/12 11:47:03;;;;;;;0.00;0.00;;;;;;;40.54;nan;99687.16;7392630;19;20023;-81
2023/09/12 11:49:37;;;;;;;0.15;0.08;;;;;;;40.80;nan;99681.94;7395859;19;20022;-82
2023/09/12 11:52:08;;;;;;;0.28;0.28;;;;;;;40.17;nan;99679.66;7397720;19;20025;-82
2023/09/12 11:54:34;;;;;;;0.00;0.00;;;;;;;40.41;nan;99683.22;7396040;19;20034;-82